Time;durP1;ratioP1;P1;durP2;ratioP2;P2;SDS_P1;SDS_P2;PMS_P1;PMS_P2;Temp;Humidity;BMP_temperature;BMP_pressure;BME280_temperature;BME280_humidity;BME280_pressure;Samples;Min_cycle;Max_cycle;Signal;HPM_P1;HPM_P2
2023/01/05 00:02:08;;;;;;;61.78;5.00;;;;;;;12.65;100.00;98062.97;5026948;28;20682;-56
2023/01/05 00:04:34;;;;;;;60.40;4.97;;;;;;;12.62;100.00;98061.28;5031788;28;20355;-56
2023/01/05 00:06:59;;;;;;;65.60;5.22;;;;;;;12.34;100.00;98059.81;5024509;28;20102;-56
2023/01/05 00:09:24;;;;;;;56.47;4.68;;;;;;;12.32;100.00;98064.16;5029279;28;20726;-56
2023/01/05 00:22:58;;;;;;;83.32;6.38;;;;;;;12.13;100.00;98067.81;5026938;28;20906;-56
2023/01/05 00:25:26;;;;;;;87.93;6.80;;;;;;;11.73;100.00;98067.19;5027396;28;20076;-55
2023/01/05 00:27:52;;;;;;;80.88;6.38;;;;;;;11.80;100.00;98062.81;5027155;28;20036;-56
2023/01/05 00:30:22;;;;;;;92.40;6.93;;;;;;;11.81;100.00;98072.38;5026707;28;20570;-55
2023/01/05 00:32:48;;;;;;;83.38;6.30;;;;;;;11.49;100.00;98063.88;5028058;28;20397;-58
2023/01/05 00:35:14;;;;;;;83.97;6.35;;;;;;;11.57;100.00;98062.09;5025916;28;20049;-55
2023/01/05 00:37:40;;;;;;;74.90;5.78;;;;;;;11.52;100.00;98061.25;5023767;28;20063;-57
2023/01/05 00:40:09;;;;;;;82.03;6.78;;;;;;;11.51;100.00;98046.47;5028354;28;20144;-56
2023/01/05 00:42:34;;;;;;;96.65;7.35;;;;;;;11.56;100.00;98049.94;5026643;28;20045;-55
2023/01/05 00:45:00;;;;;;;72.03;6.07;;;;;;;11.66;100.00;98047.28;5028851;28;20018;-54
2023/01/05 00:47:25;;;;;;;85.68;6.80;;;;;;;11.63;100.00;98058.59;5027657;28;20018;-57
2023/01/05 00:49:51;;;;;;;97.00;7.25;;;;;;;11.64;100.00;98047.28;5027887;28;20458;-56
2023/01/05 00:52:16;;;;;;;85.07;6.45;;;;;;;11.57;100.00;98053.41;5027438;28;20041;-54
2023/01/05 00:54:41;;;;;;;84.40;6.50;;;;;;;11.62;100.00;98056.00;5027355;28;20024;-57
2023/01/05 00:57:10;;;;;;;83.53;6.30;;;;;;;11.53;100.00;98046.47;5025255;28;20190;-55
2023/01/05 00:59:35;;;;;;;124.47;8.70;;;;;;;11.50;100.00;98041.31;5025539;28;20020;-56
2023/01/05 01:02:01;;;;;;;89.10;6.97;;;;;;;11.38;100.00;98031.81;5024434;28;20137;-56
2023/01/05 01:04:26;;;;;;;102.97;7.68;;;;;;;11.36;100.00;98030.97;5028367;28;20056;-55
2023/01/05 01:06:53;;;;;;;67.95;5.47;;;;;;;11.38;100.00;98027.47;5028662;28;20051;-56
2023/01/05 01:09:18;;;;;;;62.00;5.25;;;;;;;11.07;100.00;98032.84;5027835;28;20060;-55
2023/01/05 01:11:44;;;;;;;75.35;5.95;;;;;;;10.97;100.00;98036.34;5028003;28;20129;-55
2023/01/05 01:14:11;;;;;;;69.18;4.97;;;;;;;10.88;100.00;98039.88;5028203;28;20027;-55
2023/01/05 01:16:36;;;;;;;76.20;5.65;;;;;;;10.78;100.00;98032.09;5026952;28;20072;-55
2023/01/05 01:19:02;;;;;;;72.38;5.40;;;;;;;10.60;100.00;98026.94;5032161;28;20059;-56
2023/01/05 01:21:27;;;;;;;62.42;4.88;;;;;;;10.60;100.00;98022.63;5029123;28;20037;-56
2023/01/05 01:23:53;;;;;;;81.45;5.95;;;;;;;10.87;100.00;98028.59;5031040;28;20116;-56
2023/01/05 01:26:18;;;;;;;64.43;5.45;;;;;;;10.99;100.00;98034.63;5028965;28;20041;-55
2023/01/05 01:28:46;;;;;;;61.55;4.53;;;;;;;11.07;100.00;98040.66;5029938;28;20617;-58
2023/01/05 01:31:11;;;;;;;66.10;4.95;;;;;;;11.09;100.00;98005.06;5030463;28;20039;-55
2023/01/05 01:33:38;;;;;;;52.25;4.75;;;;;;;11.01;100.00;98004.25;5029143;28;20033;-55
2023/01/05 01:36:04;;;;;;;78.53;6.00;;;;;;;11.23;100.00;98009.31;5030863;28;20037;-56
2023/01/05 01:38:30;;;;;;;54.35;4.70;;;;;;;11.06;100.00;97995.53;5029948;28;20052;-56
2023/01/05 01:40:55;;;;;;;56.72;4.82;;;;;;;11.06;100.00;97992.94;5027765;28;20037;-55
2023/01/05 01:43:46;;;;;;;50.05;4.38;;;;;;;11.16;100.00;97985.94;5030619;28;20160;-55
2023/01/05 01:46:14;;;;;;;72.18;5.45;;;;;;;10.99;100.00;97983.41;5029468;28;20052;-57
2023/01/05 01:48:56;;;;;;;60.92;4.90;;;;;;;11.13;100.00;97979.91;5030071;28;20939;-55
2023/01/05 01:51:43;;;;;;;72.28;6.05;;;;;;;11.06;100.00;97992.94;5029607;28;20037;-57
2023/01/05 01:54:13;;;;;;;74.00;5.82;;;;;;;11.27;100.00;97987.59;5029685;28;20039;-56
2023/01/05 01:56:44;;;;;;;58.83;4.75;;;;;;;11.26;100.00;97989.38;5030601;28;20057;-55
2023/01/05 01:59:10;;;;;;;61.80;4.82;;;;;;;11.33;100.00;97987.59;5033312;28;20049;-55
2023/01/05 02:15:00;;;;;;;290.67;21.10;;;;;;;11.33;100.00;97975.41;6003971;23;20024;-53
2023/01/05 02:35:49;;;;;;;87.32;6.55;;;;;;;11.56;100.00;97973.53;6041829;23;20021;-53
2023/01/05 03:01:55;;;;;;;111.53;8.13;;;;;;;11.63;100.00;97938.75;5131999;23;20303;-56
2023/01/05 03:04:26;;;;;;;48.35;4.13;;;;;;;11.76;100.00;97933.44;4957160;28;20027;-57
2023/01/05 03:06:58;;;;;;;63.88;4.95;;;;;;;11.72;100.00;97943.00;4959820;28;20034;-54
2023/01/05 03:09:27;;;;;;;61.78;4.68;;;;;;;11.89;100.00;97935.03;4960904;28;20251;-55
2023/01/05 03:15:23;;;;;;;58.15;4.57;;;;;;;11.74;100.00;97932.56;4961227;28;20494;-55
2023/01/05 03:17:57;;;;;;;78.38;5.75;;;;;;;11.79;100.00;97926.44;4961298;28;20081;-53
2023/01/05 03:20:26;;;;;;;62.50;4.95;;;;;;;11.84;100.00;97921.22;4960071;28;20790;-53
2023/01/05 03:37:04;;;;;;;79.07;5.82;;;;;;;12.09;100.00;97910.53;4960155;28;20451;-53
2023/01/05 03:39:32;;;;;;;41.08;3.83;;;;;;;12.07;100.00;97899.28;4960915;28;20848;-54
2023/01/05 03:41:58;;;;;;;48.03;4.18;;;;;;;12.10;100.00;97907.91;4959465;28;20101;-53
2023/01/05 03:44:24;;;;;;;49.53;4.15;;;;;;;12.16;100.00;97896.56;4960575;28;20027;-52
2023/01/05 03:46:50;;;;;;;38.80;3.63;;;;;;;12.19;100.00;97904.38;4960504;28;20240;-52
2023/01/05 03:49:16;;;;;;;58.30;4.55;;;;;;;12.07;100.00;97902.72;4960258;28;20341;-53
2023/01/05 03:51:42;;;;;;;65.82;4.90;;;;;;;12.16;100.00;97898.28;4958736;28;20522;-53
2023/01/05 03:54:07;;;;;;;77.40;5.85;;;;;;;12.25;100.00;97895.56;4960185;28;20824;-55
2023/01/05 03:56:32;;;;;;;42.97;3.90;;;;;;;12.35;100.00;97893.72;4960061;28;20039;-56
2023/01/05 03:58:58;;;;;;;53.88;4.47;;;;;;;12.54;100.00;97890.91;4960434;28;20452;-54
2023/01/05 04:01:23;;;;;;;72.22;5.28;;;;;;;12.53;100.00;97894.38;4959179;28;20106;-55
2023/01/05 04:03:48;;;;;;;61.72;5.03;;;;;;;12.73;100.00;97896.75;4960560;28;20068;-53
2023/01/05 04:06:14;;;;;;;65.80;5.50;;;;;;;12.73;100.00;97900.22;4959677;28;20042;-54
2023/01/05 04:08:39;;;;;;;47.35;4.00;;;;;;;12.39;100.00;97903.25;4960321;28;20035;-53
2023/01/05 04:11:16;;;;;;;68.55;5.20;;;;;;;12.45;100.00;97917.97;4958690;28;20480;-53
2023/01/05 04:13:42;;;;;;;53.05;4.35;;;;;;;12.50;100.00;97916.16;4959765;28;20030;-53
2023/01/05 04:16:08;;;;;;;46.97;4.20;;;;;;;12.45;100.00;97916.22;4951565;28;20108;-53
2023/01/05 04:18:33;;;;;;;68.70;5.38;;;;;;;12.26;100.00;97918.19;4959476;28;20137;-53
2023/01/05 04:20:59;;;;;;;64.43;5.30;;;;;;;12.29;100.00;97925.97;4958273;28;20035;-56
2023/01/05 04:23:24;;;;;;;62.25;4.95;;;;;;;12.37;100.00;97924.13;4958477;28;20042;-56
2023/01/05 04:25:50;;;;;;;54.45;4.35;;;;;;;12.44;100.00;97917.09;4959130;28;20500;-55
2023/01/05 04:28:15;;;;;;;59.42;4.88;;;;;;;12.20;100.00;97919.13;4960064;28;20440;-54
2023/01/05 04:30:44;;;;;;;71.80;5.45;;;;;;;12.16;100.00;97917.41;4958619;28;20113;-53
2023/01/05 04:33:09;;;;;;;48.65;4.15;;;;;;;12.28;100.00;97916.41;4959602;28;20565;-52
2023/01/05 04:35:35;;;;;;;60.97;5.05;;;;;;;12.34;100.00;97907.66;4959094;28;20686;-53
2023/01/05 04:38:00;;;;;;;57.85;4.65;;;;;;;12.42;100.00;97918.88;4960319;28;20031;-52
2023/01/05 04:40:26;;;;;;;61.63;4.78;;;;;;;12.27;100.00;97924.25;4958573;28;20039;-53
2023/01/05 04:42:51;;;;;;;60.20;4.90;;;;;;;12.10;100.00;97926.16;4958838;28;20026;-53
2023/01/05 04:45:16;;;;;;;53.05;4.32;;;;;;;12.06;100.00;97914.03;4958479;28;20058;-53
2023/01/05 04:47:42;;;;;;;66.82;5.38;;;;;;;12.14;100.00;97918.31;4959429;28;20042;-52
2023/01/05 04:50:08;;;;;;;40.78;3.72;;;;;;;12.27;100.00;97914.69;4958527;28;20034;-53
2023/01/05 04:52:34;;;;;;;55.10;4.80;;;;;;;12.19;100.00;97922.63;4959914;28;20045;-53
2023/01/05 04:54:59;;;;;;;67.95;5.28;;;;;;;12.03;100.00;97926.22;4959700;28;20034;-52
2023/01/05 04:57:24;;;;;;;51.67;4.50;;;;;;;12.00;100.00;97924.53;4959250;28;20035;-55
2023/01/05 04:59:50;;;;;;;111.35;8.20;;;;;;;12.05;100.00;97920.16;4958229;28;20027;-56
2023/01/05 05:02:15;;;;;;;54.13;4.65;;;;;;;12.17;100.00;97923.50;4958735;28;20053;-53
2023/01/05 05:04:40;;;;;;;54.25;4.60;;;;;;;11.91;100.00;97935.03;4959693;28;20668;-55
2023/01/05 05:07:06;;;;;;;67.63;5.53;;;;;;;12.03;100.00;97934.88;4958819;28;20173;-53
2023/01/05 05:09:31;;;;;;;45.70;3.88;;;;;;;12.11;100.00;97932.25;4957951;28;20034;-52
2023/01/05 05:11:56;;;;;;;61.25;5.20;;;;;;;12.07;100.00;97935.78;4957749;28;20173;-52
2023/01/05 05:14:22;;;;;;;56.63;4.97;;;;;;;12.20;100.00;97936.50;4959341;28;20018;-53
2023/01/05 05:16:47;;;;;;;52.30;4.70;;;;;;;12.26;100.00;97936.44;4958655;28;20042;-52
2023/01/05 05:19:13;;;;;;;73.82;5.50;;;;;;;12.07;100.00;97949.66;4958916;28;20054;-53
2023/01/05 05:21:38;;;;;;;56.17;4.72;;;;;;;12.10;100.00;97970.50;4957640;28;20054;-53
2023/01/05 05:24:05;;;;;;;62.47;4.85;;;;;;;11.89;100.00;97962.84;4959184;28;20677;-54
2023/01/05 05:26:30;;;;;;;54.65;4.55;;;;;;;12.13;100.00;97966.13;4958656;28;20504;-53
2023/01/05 05:28:58;;;;;;;55.60;5.18;;;;;;;11.92;100.00;97974.09;4959630;28;20573;-53
2023/01/05 05:31:23;;;;;;;64.72;5.30;;;;;;;11.82;100.00;97975.06;4958394;28;20471;-52
2023/01/05 05:33:48;;;;;;;59.53;4.90;;;;;;;11.93;100.00;97973.25;4964179;28;20480;-54
2023/01/05 05:36:14;;;;;;;68.63;5.53;;;;;;;11.97;100.00;97971.47;4962080;28;20038;-52
2023/01/05 05:38:39;;;;;;;53.40;4.40;;;;;;;11.74;100.00;97982.06;4963062;28;20640;-52
2023/01/05 05:41:05;;;;;;;79.00;5.55;;;;;;;11.97;100.00;97981.88;4961414;28;20042;-52
2023/01/05 05:43:30;;;;;;;62.53;5.68;;;;;;;11.94;100.00;97987.09;4962798;28;20031;-52
2023/01/05 05:45:55;;;;;;;55.08;4.65;;;;;;;11.80;100.00;97990.72;4962595;28;20045;-52
2023/01/05 05:48:21;;;;;;;46.70;4.30;;;;;;;11.90;100.00;97990.63;4963257;28;20737;-52
2023/01/05 05:50:46;;;;;;;43.42;3.85;;;;;;;11.84;100.00;97994.16;4961579;28;20165;-53
2023/01/05 05:53:12;;;;;;;61.20;4.68;;;;;;;11.68;100.00;97996.88;4962504;28;20030;-53
2023/01/05 05:55:37;;;;;;;57.85;4.50;;;;;;;11.62;100.00;98004.72;4962148;28;20053;-51
2023/01/05 05:58:03;;;;;;;58.78;4.50;;;;;;;11.52;100.00;98014.38;4963073;28;20022;-53
2023/01/05 06:00:28;;;;;;;69.72;5.20;;;;;;;11.39;100.00;98018.78;4961449;28;20073;-54
2023/01/05 06:02:53;;;;;;;60.28;4.68;;;;;;;11.59;100.00;98021.25;4961930;28;20039;-54
2023/01/05 06:05:19;;;;;;;59.28;4.72;;;;;;;11.57;100.00;98024.75;4962181;28;20045;-53
2023/01/05 06:07:44;;;;;;;64.43;4.93;;;;;;;11.79;100.00;98015.03;4962147;28;20554;-53
2023/01/05 06:10:09;;;;;;;61.45;5.03;;;;;;;11.37;100.00;98020.53;4975568;28;20037;-52
2023/01/05 06:12:35;;;;;;;57.53;4.55;;;;;;;11.29;100.00;98030.16;4962321;28;20041;-53
2023/01/05 06:15:00;;;;;;;50.85;4.25;;;;;;;11.41;100.00;98040.50;4962452;28;20638;-54
2023/01/05 06:17:26;;;;;;;59.25;5.10;;;;;;;11.23;100.00;98046.66;4961761;28;20039;-52
2023/01/05 06:19:51;;;;;;;111.00;7.72;;;;;;;11.41;100.00;98047.44;4961615;28;20062;-53
2023/01/05 06:22:16;;;;;;;59.22;4.75;;;;;;;11.42;100.00;98054.34;4961399;28;20038;-52
2023/01/05 06:24:42;;;;;;;63.90;4.90;;;;;;;11.45;100.00;98068.25;4961003;28;20030;-54
2023/01/05 06:27:07;;;;;;;68.32;5.20;;;;;;;11.55;100.00;98079.44;4959733;28;20552;-52
2023/01/05 06:29:32;;;;;;;55.30;4.95;;;;;;;11.46;100.00;98082.13;4962253;28;20121;-53
2023/01/05 06:31:58;;;;;;;77.40;5.72;;;;;;;11.45;100.00;98078.66;4960102;28;20133;-53
2023/01/05 06:34:23;;;;;;;55.65;4.53;;;;;;;11.40;100.00;98075.19;4962021;28;20038;-53
2023/01/05 06:36:48;;;;;;;61.08;4.95;;;;;;;11.43;100.00;98080.41;4961425;28;20038;-54
2023/01/05 06:39:14;;;;;;;63.65;4.97;;;;;;;11.54;100.00;98061.25;4963100;28;20751;-53
2023/01/05 06:41:39;;;;;;;64.28;5.05;;;;;;;11.50;100.00;98055.19;4959795;28;20041;-53
2023/01/05 06:44:05;;;;;;;68.25;5.15;;;;;;;11.31;100.00;98052.69;4961704;28;20042;-53
2023/01/05 06:46:31;;;;;;;56.47;4.57;;;;;;;11.19;100.00;98055.34;4961389;28;20117;-55
2023/01/05 06:48:56;;;;;;;62.05;4.78;;;;;;;11.23;100.00;98054.47;4962199;28;20129;-54
2023/01/05 06:51:21;;;;;;;74.35;5.70;;;;;;;11.36;100.00;98055.25;4959919;28;20035;-54
2023/01/05 06:53:47;;;;;;;66.80;5.35;;;;;;;11.47;100.00;98070.81;4961976;28;20033;-52
2023/01/05 06:56:12;;;;;;;72.03;6.03;;;;;;;11.28;100.00;98088.31;4960771;28;20101;-52
2023/01/05 06:58:37;;;;;;;58.35;4.90;;;;;;;11.12;100.00;98082.28;4961933;28;20027;-54
2023/01/05 07:01:03;;;;;;;87.57;7.80;;;;;;;11.52;100.00;98078.63;4959846;28;20377;-55
2023/01/05 07:03:28;;;;;;;91.95;9.25;;;;;;;11.57;100.00;98095.94;4961702;28;20026;-53
2023/01/05 07:05:54;;;;;;;69.85;6.28;;;;;;;11.31;100.00;98099.56;4961353;28;20134;-54
2023/01/05 07:08:19;;;;;;;79.10;7.07;;;;;;;11.01;100.00;98103.13;4960976;28;20121;-53
2023/01/05 07:10:44;;;;;;;75.30;6.55;;;;;;;11.32;100.00;98111.69;4960657;28;20041;-55
2023/01/05 07:13:10;;;;;;;63.30;5.00;;;;;;;10.84;100.00;98113.59;4960608;28;20031;-52
2023/01/05 07:15:35;;;;;;;65.00;5.20;;;;;;;10.54;100.00;98116.25;4960901;28;20034;-53
2023/01/05 07:18:01;;;;;;;70.70;5.63;;;;;;;10.41;100.00;98117.97;4961282;28;20682;-52
2023/01/05 07:20:26;;;;;;;71.35;5.57;;;;;;;10.31;100.00;98118.84;4942593;28;21668;-52
2023/01/05 07:22:51;;;;;;;70.32;5.57;;;;;;;10.24;100.00;98121.44;4960803;28;21044;-55
2023/01/05 07:25:17;;;;;;;76.70;5.63;;;;;;;10.14;100.00;98123.16;4960306;28;20069;-54
2023/01/05 07:27:42;;;;;;;104.82;7.45;;;;;;;10.16;100.00;98129.25;4959175;28;20034;-55
2023/01/05 07:30:08;;;;;;;73.10;5.70;;;;;;;10.05;100.00;98143.09;4958868;28;20034;-53
2023/01/05 07:32:34;;;;;;;66.80;5.32;;;;;;;10.28;100.00;98140.50;4960137;28;20027;-55
2023/01/05 07:34:59;;;;;;;60.90;4.78;;;;;;;10.41;100.00;98156.97;4960739;28;20045;-52
2023/01/05 07:37:25;;;;;;;72.72;5.78;;;;;;;10.49;100.00;98152.66;4960777;28;20085;-52
2023/01/05 07:39:50;;;;;;;122.10;8.75;;;;;;;10.60;100.00;98155.25;4959903;28;20038;-52
2023/01/05 07:42:16;;;;;;;58.30;5.25;;;;;;;10.76;100.00;98166.50;4960473;28;20030;-52
2023/01/05 07:44:41;;;;;;;70.60;5.82;;;;;;;10.70;100.00;98168.25;4960890;28;20181;-53
2023/01/05 07:47:07;;;;;;;64.80;5.13;;;;;;;10.53;100.00;98177.81;4960559;28;20074;-54
2023/01/05 07:49:32;;;;;;;50.08;4.65;;;;;;;10.69;100.00;98172.59;4960910;28;20409;-52
2023/01/05 07:51:58;;;;;;;62.35;5.18;;;;;;;10.63;100.00;98177.81;4959010;28;20039;-52
2023/01/05 07:54:23;;;;;;;66.63;5.15;;;;;;;10.64;100.00;98184.72;4958364;28;20051;-52
2023/01/05 07:56:49;;;;;;;64.25;5.38;;;;;;;10.76;100.00;98179.53;4959666;28;20081;-53
2023/01/05 07:59:14;;;;;;;71.22;5.72;;;;;;;10.86;100.00;98182.09;4960804;28;20046;-53
2023/01/05 08:01:39;;;;;;;63.83;5.90;;;;;;;10.83;100.00;98185.59;4958655;28;20113;-53
2023/01/05 08:04:05;;;;;;;76.03;6.32;;;;;;;11.08;100.00;98195.97;4959121;28;20133;-54
2023/01/05 08:06:30;;;;;;;54.80;5.13;;;;;;;10.97;100.00;98189.91;4960068;28;20530;-56
2023/01/05 08:08:56;;;;;;;66.03;5.22;;;;;;;10.88;100.00;98201.19;4960183;28;20980;-53
2023/01/05 08:11:21;;;;;;;69.80;5.72;;;;;;;10.90;100.00;98213.34;4958403;28;20046;-52
2023/01/05 08:13:59;;;;;;;71.95;6.10;;;;;;;11.14;100.00;98215.91;4960144;28;20031;-53
2023/01/05 08:16:26;;;;;;;59.42;5.13;;;;;;;11.15;100.00;98217.63;4959876;28;20061;-53
2023/01/05 08:18:51;;;;;;;65.70;5.53;;;;;;;11.42;100.00;98208.00;4958528;28;20118;-56
2023/01/05 08:21:17;;;;;;;78.07;6.20;;;;;;;11.46;100.00;98217.56;4958414;28;20039;-55
2023/01/05 08:23:44;;;;;;;56.05;4.93;;;;;;;11.33;100.00;98228.00;4960356;28;20027;-52
2023/01/05 08:26:13;;;;;;;60.65;5.50;;;;;;;11.17;100.00;98232.38;4959128;28;20046;-53
2023/01/05 08:28:39;;;;;;;54.40;4.53;;;;;;;11.52;100.00;98235.78;4960122;28;20023;-55
2023/01/05 08:31:07;;;;;;;81.57;6.30;;;;;;;11.42;100.00;98236.66;4958583;28;20409;-55
2023/01/05 08:33:33;;;;;;;70.97;5.88;;;;;;;11.41;100.00;98245.34;4959164;28;20040;-55
2023/01/05 08:35:59;;;;;;;64.30;5.47;;;;;;;11.48;100.00;98244.47;4961087;28;20061;-54
2023/01/05 08:38:24;;;;;;;75.72;6.18;;;;;;;11.41;100.00;98234.94;4959344;28;20052;-55
2023/01/05 08:40:50;;;;;;;67.65;5.53;;;;;;;11.76;100.00;98240.91;4958678;28;20049;-53
2023/01/05 08:43:16;;;;;;;60.72;5.03;;;;;;;11.87;100.00;98241.72;4959037;28;20031;-53
2023/01/05 08:45:41;;;;;;;86.65;6.88;;;;;;;11.63;100.00;98234.88;4958786;28;20043;-54
2023/01/05 08:48:08;;;;;;;55.03;4.75;;;;;;;11.75;100.00;98236.53;4959581;28;20615;-54
2023/01/05 08:50:34;;;;;;;65.72;5.43;;;;;;;11.55;100.00;98248.78;4957887;28;20041;-54
2023/01/05 08:52:59;;;;;;;60.30;5.18;;;;;;;11.68;100.00;98243.53;4959234;28;20030;-53
2023/01/05 08:55:24;;;;;;;64.32;5.57;;;;;;;11.72;100.00;98245.25;4959000;28;20771;-54
2023/01/05 08:57:50;;;;;;;70.07;6.15;;;;;;;11.79;100.00;98254.78;4958497;28;20065;-53
2023/01/05 09:00:16;;;;;;;56.30;4.72;;;;;;;11.92;100.00;98249.53;4958252;28;20035;-53
2023/01/05 09:02:42;;;;;;;59.65;4.70;;;;;;;11.85;100.00;98244.31;4958488;28;20035;-56
2023/01/05 09:05:08;;;;;;;51.47;4.35;;;;;;;11.80;100.00;98247.84;4958775;28;20539;-55
2023/01/05 09:07:33;;;;;;;56.67;4.93;;;;;;;12.03;100.00;98252.06;4959834;28;20026;-55
2023/01/05 09:09:59;;;;;;;75.00;5.50;;;;;;;11.98;100.00;98245.13;4958289;28;20069;-54
2023/01/05 09:12:24;;;;;;;62.05;5.13;;;;;;;11.85;100.00;98256.50;4958450;28;20129;-54
2023/01/05 09:14:50;;;;;;;63.65;5.65;;;;;;;12.02;100.00;98261.63;4958815;28;20489;-56
2023/01/05 09:17:15;;;;;;;75.93;5.75;;;;;;;12.21;100.00;98261.59;4955750;28;20500;-53
2023/01/05 09:19:40;;;;;;;100.50;7.40;;;;;;;12.29;100.00;98270.19;4957116;28;20938;-54
2023/01/05 09:22:06;;;;;;;77.38;6.03;;;;;;;12.28;100.00;98273.69;4958134;28;20558;-54
2023/01/05 09:24:31;;;;;;;61.45;4.85;;;;;;;12.42;100.00;98275.34;4959028;28;20081;-54
2023/01/05 09:26:57;;;;;;;62.88;5.13;;;;;;;12.49;100.00;98274.44;4959174;28;20646;-54
2023/01/05 09:29:22;;;;;;;62.63;5.25;;;;;;;12.56;100.00;98275.25;4959636;28;20034;-54
2023/01/05 09:31:48;;;;;;;54.17;5.18;;;;;;;12.65;100.00;98279.56;4957826;28;20264;-54
2023/01/05 09:34:14;;;;;;;79.43;6.07;;;;;;;12.54;100.00;98277.88;4959098;28;20094;-54
2023/01/05 09:36:40;;;;;;;63.63;5.22;;;;;;;12.64;100.00;98278.69;4959082;28;20101;-54
2023/01/05 09:39:05;;;;;;;62.97;5.07;;;;;;;12.76;100.00;98280.34;4958983;28;20031;-54
2023/01/05 09:41:39;;;;;;;61.25;4.82;;;;;;;13.10;100.00;98287.88;4957478;28;20161;-53
2023/01/05 09:44:29;;;;;;;61.55;4.93;;;;;;;13.35;100.00;98278.94;4959100;28;20503;-53
2023/01/05 09:47:03;;;;;;;56.75;4.95;;;;;;;13.20;100.00;98279.97;4958951;28;20039;-53
2023/01/05 09:49:31;;;;;;;73.38;5.63;;;;;;;14.00;100.00;98282.63;4958652;28;20035;-55
2023/01/05 09:52:07;;;;;;;63.95;5.15;;;;;;;13.93;100.00;98281.84;4957546;28;20034;-53
2023/01/05 09:54:33;;;;;;;65.63;5.15;;;;;;;13.66;100.00;98278.69;4958600;28;20500;-52
2023/01/05 09:56:59;;;;;;;52.95;4.70;;;;;;;13.73;100.00;98285.56;4958061;28;20042;-54
2023/01/05 09:59:32;;;;;;;70.35;5.53;;;;;;;13.60;100.00;98287.47;4958596;28;20090;-53
2023/01/05 10:02:00;;;;;;;68.82;5.20;;;;;;;13.31;100.00;98275.53;4957145;28;20053;-53
2023/01/05 10:04:29;;;;;;;57.22;4.78;;;;;;;13.44;100.00;98276.28;4958754;28;20658;-55
2023/01/05 10:07:00;;;;;;;49.33;4.70;;;;;;;13.13;100.00;98290.47;4958525;28;20177;-54
2023/01/05 10:09:32;;;;;;;48.38;4.28;;;;;;;12.89;100.00;98295.03;4958681;28;20029;-53
2023/01/05 10:14:53;;;;;;;52.80;4.38;;;;;;;13.15;100.00;98298.31;4959092;28;20034;-54
2023/01/05 10:17:21;;;;;;;51.30;4.47;;;;;;;13.26;100.00;98299.06;4959339;28;20070;-55
2023/01/05 10:19:47;;;;;;;102.82;7.78;;;;;;;13.24;100.00;98307.78;4961673;28;20062;-52
2023/01/05 10:22:30;;;;;;;54.30;4.80;;;;;;;13.30;100.00;98306.88;4961701;28;20133;-53
2023/01/05 10:24:58;;;;;;;;;;;;;;;13.10;100.00;98311.41;4962636;28;20654;-53
2023/01/05 10:27:29;;;;;;;54.10;4.95;;;;;;;13.23;100.00;98303.47;4961427;28;20422;-53
2023/01/05 10:30:08;;;;;;;81.72;6.53;;;;;;;13.44;100.00;98302.41;4960841;28;20038;-55
2023/01/05 10:32:37;;;;;;;57.25;5.13;;;;;;;13.51;100.00;98298.84;4961271;28;20034;-53
2023/01/05 10:35:37;;;;;;;67.65;6.15;;;;;;;14.16;100.00;98288.53;4961975;28;20030;-53
2023/01/05 10:38:19;;;;;;;83.68;6.28;;;;;;;14.27;100.00;98288.38;4958479;28;20043;-54
2023/01/05 10:40:56;;;;;;;;;;;;;;;14.39;100.00;98277.75;4960982;28;20066;-55
2023/01/05 10:43:34;;;;;;;45.15;4.28;;;;;;;14.43;100.00;98286.41;4950333;28;19997;-56
2023/01/05 10:46:01;;;;;;;68.80;5.47;;;;;;;14.34;99.86;98287.44;4960811;28;20046;-54
2023/01/05 10:48:33;;;;;;;55.70;4.78;;;;;;;14.40;100.00;98283.88;4961523;28;20042;-55
2023/01/05 10:50:59;;;;;;;84.05;6.65;;;;;;;14.52;100.00;98285.44;4960088;28;20121;-56
2023/01/05 10:53:26;;;;;;;60.45;4.97;;;;;;;13.69;100.00;98285.63;4962255;28;20094;-53
2023/01/05 10:56:05;;;;;;;46.78;4.10;;;;;;;13.83;100.00;98294.16;4961604;28;20035;-53
2023/01/05 10:58:33;;;;;;;52.17;4.35;;;;;;;13.78;100.00;98294.19;4961685;28;20030;-54
2023/01/05 11:01:05;;;;;;;76.57;5.63;;;;;;;13.41;100.00;98287.59;4959524;28;20050;-54
2023/01/05 11:03:44;;;;;;;52.03;4.40;;;;;;;13.21;100.00;98297.41;4961811;28;20098;-54
2023/01/05 11:06:20;;;;;;;62.35;5.43;;;;;;;13.53;100.00;98296.22;4960826;28;20416;-54
2023/01/05 11:08:46;;;;;;;57.67;4.90;;;;;;;13.52;100.00;98291.91;4961562;28;20475;-53
2023/01/05 11:11:25;;;;;;;91.35;6.95;;;;;;;13.50;100.00;98291.91;4959479;28;20069;-53
2023/01/05 11:13:56;;;;;;;49.35;4.30;;;;;;;13.21;100.00;98298.25;4961785;28;20038;-53
2023/01/05 11:16:25;;;;;;;60.20;4.93;;;;;;;12.85;100.00;98300.28;4960620;28;20042;-53
2023/01/05 11:19:15;;;;;;;52.20;4.43;;;;;;;12.89;100.00;98295.03;4961299;28;20610;-55
2023/01/05 11:21:45;;;;;;;61.33;5.35;;;;;;;12.83;100.00;98297.69;4959710;28;20081;-53
2023/01/05 11:24:22;;;;;;;60.55;5.00;;;;;;;13.12;100.00;98307.03;4960959;28;20385;-54
2023/01/05 11:26:51;;;;;;;54.20;4.55;;;;;;;13.02;100.00;98294.91;4960578;28;20050;-53
2023/01/05 11:29:17;;;;;;;58.00;4.75;;;;;;;13.03;100.00;98301.91;4961391;28;20125;-55
2023/01/05 11:32:03;;;;;;;67.97;5.22;;;;;;;13.03;100.00;98309.72;4959329;28;20591;-55
2023/01/05 11:34:45;;;;;;;73.10;5.80;;;;;;;13.04;100.00;98310.59;4959663;28;20527;-53
2023/01/05 11:37:10;;;;;;;61.78;4.75;;;;;;;12.83;100.00;98305.53;4960640;28;20051;-52
2023/01/05 11:39:45;;;;;;;85.78;6.80;;;;;;;12.94;100.00;98312.38;4960657;28;20047;-53
2023/01/05 11:42:27;;;;;;;55.67;4.78;;;;;;;12.96;100.00;98311.50;4958484;28;20592;-55
2023/01/05 11:45:02;;;;;;;61.58;4.82;;;;;;;12.77;96.83;98300.34;4960889;28;20873;-54
2023/01/05 11:47:27;;;;;;;64.10;5.25;;;;;;;12.85;95.67;98303.75;4960090;28;20051;-53
2023/01/05 11:50:08;;;;;;;97.95;6.95;;;;;;;13.10;100.00;98315.78;4961340;28;20507;-52
2023/01/05 11:52:39;;;;;;;58.15;4.95;;;;;;;12.88;98.01;98306.34;4959756;28;20787;-53
2023/01/05 11:55:19;;;;;;;55.10;4.90;;;;;;;13.09;100.00;98307.06;4958814;28;20023;-54
2023/01/05 11:57:49;;;;;;;72.72;5.88;;;;;;;13.25;100.00;98317.38;4959657;28;20052;-53
2023/01/05 12:00:39;;;;;;;48.75;4.60;;;;;;;13.36;100.00;98314.66;4958942;28;20049;-53
2023/01/05 12:03:28;;;;;;;56.58;4.53;;;;;;;13.26;97.80;98308.66;4959808;28;20073;-53
2023/01/05 12:06:04;;;;;;;72.22;6.07;;;;;;;13.22;100.00;98314.78;4959366;28;20124;-54
2023/01/05 12:08:40;;;;;;;47.03;4.85;;;;;;;13.23;100.00;98319.13;4960728;28;20027;-53
2023/01/05 12:11:18;;;;;;;93.30;7.00;;;;;;;12.99;91.46;98321.06;4958205;28;20039;-53
2023/01/05 12:13:43;;;;;;;55.72;4.65;;;;;;;13.73;96.17;98329.16;4960691;28;20026;-53
2023/01/05 12:16:30;;;;;;;78.53;6.38;;;;;;;13.78;91.03;98324.72;4959608;28;20045;-54
2023/01/05 12:19:13;;;;;;;57.42;5.57;;;;;;;14.08;93.61;98320.03;4959763;28;20085;-53
2023/01/05 12:22:16;;;;;;;56.42;4.97;;;;;;;14.09;97.72;98313.91;4958481;28;20045;-56
2023/01/05 12:24:41;;;;;;;;;;;;;;;13.57;93.75;98320.56;4901601;28;20166;-53
2023/01/05 12:27:26;;;;;;;67.90;6.10;;;;;;;13.57;99.61;98318.84;4958946;28;19993;-55
2023/01/05 12:30:09;;;;;;;97.47;7.28;;;;;;;13.38;91.58;98319.00;4959226;28;20097;-55
2023/01/05 12:33:10;;;;;;;64.35;5.45;;;;;;;12.96;92.70;98321.09;4959168;28;20047;-55
2023/01/05 12:35:54;;;;;;;57.55;4.93;;;;;;;12.79;95.89;98324.69;4938914;28;20039;-53
2023/01/05 12:38:44;;;;;;;56.15;4.60;;;;;;;12.95;99.57;98319.38;4959657;28;20061;-55
2023/01/05 12:41:33;;;;;;;77.15;5.75;;;;;;;12.80;97.02;98315.13;4957485;28;20087;-53
2023/01/05 12:44:08;;;;;;;58.00;5.15;;;;;;;13.05;95.66;98315.78;4959991;28;20027;-56
2023/01/05 12:47:16;;;;;;;62.15;5.28;;;;;;;13.01;94.38;98314.09;4958593;28;20081;-52
2023/01/05 12:49:55;;;;;;;82.60;6.55;;;;;;;13.53;90.09;98317.13;4958931;28;20027;-53
2023/01/05 12:52:31;;;;;;;54.78;4.88;;;;;;;13.80;93.63;98315.97;4958594;28;20484;-54
2023/01/05 12:55:04;;;;;;;53.75;4.60;;;;;;;13.71;93.63;98326.53;4959321;28;20638;-56